sensor_id;sensor_type;location;lat;lon;timestamp;pressure;altitude;pressure_sealevel;temperature;humidity
32933;BME280;19444;50.518;10.870;2023-08-31T00:01:47;95809.22;;;11.01;100.00
32933;BME280;19444;50.518;10.870;2023-08-31T00:04:45;95801.41;;;11.17;100.00
32933;BME280;19444;50.518;10.870;2023-08-31T00:07:42;95794.69;;;11.23;100.00
32933;BME280;19444;50.518;10.870;2023-08-31T00:10:39;95801.81;;;11.39;100.00
32933;BME280;19444;50.518;10.870;2023-08-31T00:13:36;95813.84;;;11.33;100.00
32933;BME280;19444;50.518;10.870;2023-08-31T00:16:34;95821.66;;;11.05;100.00
32933;BME280;19444;50.518;10.870;2023-08-31T00:19:33;95812.16;;;11.29;100.00
32933;BME280;19444;50.518;10.870;2023-08-31T00:22:30;95815.38;;;11.43;100.00
32933;BME280;19444;50.518;10.870;2023-08-31T00:25:27;95820.97;;;11.50;100.00
32933;BME280;19444;50.518;10.870;2023-08-31T00:28:25;95829.44;;;11.19;100.00
32933;BME280;19444;50.518;10.870;2023-08-31T00:31:24;95836.88;;;11.14;100.00
32933;BME280;19444;50.518;10.870;2023-08-31T00:34:21;95828.25;;;11.29;100.00
32933;BME280;19444;50.518;10.870;2023-08-31T00:37:18;95829.56;;;11.44;100.00
32933;BME280;19444;50.518;10.870;2023-08-31T00:40:18;95820.16;;;11.37;100.00
32933;BME280;19444;50.518;10.870;2023-08-31T00:43:15;95826.63;;;11.36;100.00
32933;BME280;19444;50.518;10.870;2023-08-31T00:46:14;95816.34;;;11.38;100.00
32933;BME280;19444;50.518;10.870;2023-08-31T00:49:11;95819.06;;;11.18;100.00
32933;BME280;19444;50.518;10.870;2023-08-31T00:52:09;95814.91;;;11.20;100.00
32933;BME280;19444;50.518;10.870;2023-08-31T00:55:07;95813.78;;;11.42;100.00
32933;BME280;19444;50.518;10.870;2023-08-31T00:58:05;95821.81;;;11.63;100.00
32933;BME280;19444;50.518;10.870;2023-08-31T01:15:17;95820.34;;;11.53;100.00
32933;BME280;19444;50.518;10.870;2023-08-31T01:17:57;95828.94;;;11.59;100.00
32933;BME280;19444;50.518;10.870;2023-08-31T01:21:17;95823.84;;;11.66;100.00
32933;BME280;19444;50.518;10.870;2023-08-31T01:24:16;95820.63;;;11.73;100.00
32933;BME280;19444;50.518;10.870;2023-08-31T01:27:14;95818.91;;;11.68;100.00
32933;BME280;19444;50.518;10.870;2023-08-31T01:30:11;95822.03;;;11.70;100.00
32933;BME280;19444;50.518;10.870;2023-08-31T01:33:08;95830.69;;;11.76;100.00
32933;BME280;19444;50.518;10.870;2023-08-31T01:36:28;95833.31;;;11.84;100.00
32933;BME280;19444;50.518;10.870;2023-08-31T01:40:08;95823.94;;;11.90;100.00
32933;BME280;19444;50.518;10.870;2023-08-31T01:43:09;95833.00;;;11.65;100.00
32933;BME280;19444;50.518;10.870;2023-08-31T01:46:07;95835.75;;;11.56;100.00
32933;BME280;19444;50.518;10.870;2023-08-31T01:49:05;95839.53;;;11.43;100.00
32933;BME280;19444;50.518;10.870;2023-08-31T01:52:02;95840.31;;;11.44;100.00
32933;BME280;19444;50.518;10.870;2023-08-31T01:54:59;95838.63;;;11.51;100.00
32933;BME280;19444;50.518;10.870;2023-08-31T01:57:56;95840.75;;;11.46;100.00
32933;BME280;19444;50.518;10.870;2023-08-31T02:00:53;95842.59;;;11.54;100.00
32933;BME280;19444;50.518;10.870;2023-08-31T02:03:50;95840.13;;;11.61;100.00
32933;BME280;19444;50.518;10.870;2023-08-31T02:06:47;95845.91;;;11.51;100.00
32933;BME280;19444;50.518;10.870;2023-08-31T02:09:44;95843.00;;;11.44;100.00
32933;BME280;19444;50.518;10.870;2023-08-31T02:12:41;95846.75;;;11.63;100.00
32933;BME280;19444;50.518;10.870;2023-08-31T02:15:39;95847.53;;;11.64;100.00
32933;BME280;19444;50.518;10.870;2023-08-31T02:18:35;95843.84;;;11.35;100.00
32933;BME280;19444;50.518;10.870;2023-08-31T02:21:32;95854.56;;;11.35;100.00
32933;BME280;19444;50.518;10.870;2023-08-31T02:24:29;95850.63;;;11.54;100.00
32933;BME280;19444;50.518;10.870;2023-08-31T02:27:27;95851.75;;;11.53;100.00
32933;BME280;19444;50.518;10.870;2023-08-31T02:30:24;95853.88;;;11.59;100.00
32933;BME280;19444;50.518;10.870;2023-08-31T02:33:20;95857.22;;;11.56;100.00
32933;BME280;19444;50.518;10.870;2023-08-31T02:36:18;95860.03;;;11.60;100.00
32933;BME280;19444;50.518;10.870;2023-08-31T02:39:17;95867.38;;;11.51;100.00
32933;BME280;19444;50.518;10.870;2023-08-31T02:42:14;95864.53;;;11.35;100.00
32933;BME280;19444;50.518;10.870;2023-08-31T02:45:11;95868.50;;;11.29;100.00
32933;BME280;19444;50.518;10.870;2023-08-31T02:48:08;95874.66;;;11.29;100.00
32933;BME280;19444;50.518;10.870;2023-08-31T02:51:05;95863.53;;;11.19;100.00
32933;BME280;19444;50.518;10.870;2023-08-31T02:54:02;95871.44;;;11.36;100.00
32933;BME280;19444;50.518;10.870;2023-08-31T02:57:01;95863.78;;;11.47;100.00
32933;BME280;19444;50.518;10.870;2023-08-31T02:59:58;95860.97;;;11.43;100.00
32933;BME280;19444;50.518;10.870;2023-08-31T03:02:56;95870.50;;;11.32;100.00
32933;BME280;19444;50.518;10.870;2023-08-31T03:05:55;95867.56;;;11.04;100.00
32933;BME280;19444;50.518;10.870;2023-08-31T03:08:53;95866.16;;;11.27;100.00
32933;BME280;19444;50.518;10.870;2023-08-31T03:11:50;95860.78;;;11.27;100.00
32933;BME280;19444;50.518;10.870;2023-08-31T03:14:48;95861.84;;;11.35;100.00
32933;BME280;19444;50.518;10.870;2023-08-31T03:17:45;95868.94;;;11.10;100.00
32933;BME280;19444;50.518;10.870;2023-08-31T03:20:42;95868.75;;;11.15;100.00
32933;BME280;19444;50.518;10.870;2023-08-31T03:23:38;95871.34;;;11.03;100.00
32933;BME280;19444;50.518;10.870;2023-08-31T03:26:36;95872.06;;;10.91;100.00
32933;BME280;19444;50.518;10.870;2023-08-31T03:29:33;95873.91;;;10.99;100.00
32933;BME280;19444;50.518;10.870;2023-08-31T03:32:31;95876.63;;;10.91;100.00
32933;BME280;19444;50.518;10.870;2023-08-31T03:35:28;95880.50;;;11.02;100.00
32933;BME280;19444;50.518;10.870;2023-08-31T03:38:25;95880.00;;;11.08;100.00
32933;BME280;19444;50.518;10.870;2023-08-31T03:41:22;95885.13;;;10.93;100.00
32933;BME280;19444;50.518;10.870;2023-08-31T03:44:21;95878.94;;;11.01;100.00
32933;BME280;19444;50.518;10.870;2023-08-31T03:47:18;95884.03;;;11.15;100.00
32933;BME280;19444;50.518;10.870;2023-08-31T03:50:15;95893.53;;;11.12;100.00
32933;BME280;19444;50.518;10.870;2023-08-31T03:53:12;95894.28;;;10.92;100.00
32933;BME280;19444;50.518;10.870;2023-08-31T03:56:09;95890.88;;;10.82;100.00
32933;BME280;19444;50.518;10.870;2023-08-31T03:59:07;95891.56;;;11.00;100.00
32933;BME280;19444;50.518;10.870;2023-08-31T04:02:04;95888.84;;;11.09;100.00
32933;BME280;19444;50.518;10.870;2023-08-31T04:05:01;95890.13;;;11.03;100.00
32933;BME280;19444;50.518;10.870;2023-08-31T04:07:58;95894.03;;;11.05;100.00
32933;BME280;19444;50.518;10.870;2023-08-31T04:10:55;95902.94;;;10.97;100.00
32933;BME280;19444;50.518;10.870;2023-08-31T04:13:51;95899.16;;;10.98;100.00
32933;BME280;19444;50.518;10.870;2023-08-31T04:16:48;95906.91;;;10.91;100.00
32933;BME280;19444;50.518;10.870;2023-08-31T04:19:47;95919.56;;;10.82;100.00
32933;BME280;19444;50.518;10.870;2023-08-31T04:22:43;95916.16;;;10.73;100.00
32933;BME280;19444;50.518;10.870;2023-08-31T04:25:40;95909.38;;;10.96;100.00
32933;BME280;19444;50.518;10.870;2023-08-31T04:28:41;95929.31;;;10.87;100.00
32933;BME280;19444;50.518;10.870;2023-08-31T04:31:39;95921.09;;;10.92;100.00
32933;BME280;19444;50.518;10.870;2023-08-31T04:34:36;95928.91;;;11.05;100.00
32933;BME280;19444;50.518;10.870;2023-08-31T04:37:33;95931.13;;;11.03;100.00
32933;BME280;19444;50.518;10.870;2023-08-31T04:40:30;95932.56;;;11.01;100.00
32933;BME280;19444;50.518;10.870;2023-08-31T04:43:28;95927.09;;;11.18;100.00
32933;BME280;19444;50.518;10.870;2023-08-31T04:46:24;95930.41;;;11.15;100.00
32933;BME280;19444;50.518;10.870;2023-08-31T04:49:22;95930.66;;;11.31;100.00
32933;BME280;19444;50.518;10.870;2023-08-31T04:52:19;95933.94;;;11.36;100.00
32933;BME280;19444;50.518;10.870;2023-08-31T04:55:16;95943.03;;;11.15;100.00
32933;BME280;19444;50.518;10.870;2023-08-31T04:58:13;95943.31;;;11.22;100.00
32933;BME280;19444;50.518;10.870;2023-08-31T05:01:10;95958.34;;;11.14;100.00
32933;BME280;19444;50.518;10.870;2023-08-31T05:04:07;95958.09;;;11.07;100.00
32933;BME280;19444;50.518;10.870;2023-08-31T05:07:04;95970.75;;;10.98;100.00
32933;BME280;19444;50.518;10.870;2023-08-31T05:10:01;95963.16;;;11.00;100.00
32933;BME280;19444;50.518;10.870;2023-08-31T05:12:58;95963.13;;;11.08;100.00
32933;BME280;19444;50.518;10.870;2023-08-31T05:15:55;95964.13;;;10.95;100.00
32933;BME280;19444;50.518;10.870;2023-08-31T05:18:52;95966.31;;;11.02;100.00
32933;BME280;19444;50.518;10.870;2023-08-31T05:21:49;95967.28;;;10.97;100.00
32933;BME280;19444;50.518;10.870;2023-08-31T05:24:46;95970.97;;;11.14;100.00
32933;BME280;19444;50.518;10.870;2023-08-31T05:27:42;95979.50;;;11.16;100.00
32933;BME280;19444;50.518;10.870;2023-08-31T05:30:50;95980.13;;;11.13;100.00
32933;BME280;19444;50.518;10.870;2023-08-31T05:33:47;95985.41;;;11.00;100.00
32933;BME280;19444;50.518;10.870;2023-08-31T05:36:44;95992.44;;;10.75;100.00
32933;BME280;19444;50.518;10.870;2023-08-31T05:39:41;95983.78;;;11.08;100.00
32933;BME280;19444;50.518;10.870;2023-08-31T05:42:38;95988.88;;;11.01;100.00
32933;BME280;19444;50.518;10.870;2023-08-31T05:45:35;96002.19;;;11.18;100.00
32933;BME280;19444;50.518;10.870;2023-08-31T05:48:34;96000.81;;;11.12;100.00
32933;BME280;19444;50.518;10.870;2023-08-31T05:51:31;96005.06;;;11.13;100.00
32933;BME280;19444;50.518;10.870;2023-08-31T05:54:28;96005.78;;;11.22;100.00
32933;BME280;19444;50.518;10.870;2023-08-31T05:57:26;96011.22;;;11.43;100.00
32933;BME280;19444;50.518;10.870;2023-08-31T06:00:24;96015.94;;;11.46;100.00
32933;BME280;19444;50.518;10.870;2023-08-31T06:03:21;96017.69;;;11.13;100.00
32933;BME280;19444;50.518;10.870;2023-08-31T06:06:18;96014.81;;;11.18;100.00
32933;BME280;19444;50.518;10.870;2023-08-31T06:09:15;96025.84;;;11.25;100.00
32933;BME280;19444;50.518;10.870;2023-08-31T06:12:13;96020.00;;;11.23;100.00
32933;BME280;19444;50.518;10.870;2023-08-31T06:15:10;96023.38;;;11.11;100.00
32933;BME280;19444;50.518;10.870;2023-08-31T06:18:07;96026.78;;;11.20;100.00
32933;BME280;19444;50.518;10.870;2023-08-31T06:21:04;96025.66;;;11.30;100.00
32933;BME280;19444;50.518;10.870;2023-08-31T06:24:01;96029.94;;;11.22;100.00
32933;BME280;19444;50.518;10.870;2023-08-31T06:26:59;96021.31;;;11.17;100.00
32933;BME280;19444;50.518;10.870;2023-08-31T06:29:56;96024.91;;;11.21;100.00
32933;BME280;19444;50.518;10.870;2023-08-31T06:32:53;96022.63;;;11.31;100.00
32933;BME280;19444;50.518;10.870;2023-08-31T06:35:51;96027.00;;;11.45;100.00
32933;BME280;19444;50.518;10.870;2023-08-31T06:38:50;96022.09;;;11.47;100.00
32933;BME280;19444;50.518;10.870;2023-08-31T06:41:47;96026.66;;;11.46;100.00
32933;BME280;19444;50.518;10.870;2023-08-31T06:44:46;96028.94;;;11.35;100.00
32933;BME280;19444;50.518;10.870;2023-08-31T06:47:43;96033.47;;;11.44;100.00
32933;BME280;19444;50.518;10.870;2023-08-31T06:50:40;96031.22;;;11.54;100.00
32933;BME280;19444;50.518;10.870;2023-08-31T06:53:37;96034.16;;;11.61;100.00
32933;BME280;19444;50.518;10.870;2023-08-31T06:56:35;96043.41;;;11.73;100.00
32933;BME280;19444;50.518;10.870;2023-08-31T06:59:32;96034.22;;;11.53;100.00
32933;BME280;19444;50.518;10.870;2023-08-31T07:02:29;96045.88;;;11.57;100.00
32933;BME280;19444;50.518;10.870;2023-08-31T07:05:26;96037.00;;;11.35;100.00
32933;BME280;19444;50.518;10.870;2023-08-31T07:08:25;96047.31;;;11.54;100.00
32933;BME280;19444;50.518;10.870;2023-08-31T07:11:22;96049.22;;;11.54;100.00
32933;BME280;19444;50.518;10.870;2023-08-31T07:14:19;96046.97;;;11.85;100.00
32933;BME280;19444;50.518;10.870;2023-08-31T07:17:19;96040.31;;;11.91;100.00
32933;BME280;19444;50.518;10.870;2023-08-31T07:20:17;96046.53;;;11.83;100.00
32933;BME280;19444;50.518;10.870;2023-08-31T07:23:14;96052.22;;;12.03;100.00
32933;BME280;19444;50.518;10.870;2023-08-31T07:26:11;96059.63;;;12.06;100.00
32933;BME280;19444;50.518;10.870;2023-08-31T07:29:08;96064.56;;;11.74;100.00
32933;BME280;19444;50.518;10.870;2023-08-31T07:32:05;96069.56;;;11.84;100.00
32933;BME280;19444;50.518;10.870;2023-08-31T07:35:02;96067.56;;;11.73;100.00
32933;BME280;19444;50.518;10.870;2023-08-31T07:38:01;96074.56;;;11.65;100.00
32933;BME280;19444;50.518;10.870;2023-08-31T07:40:59;96070.97;;;11.90;100.00
32933;BME280;19444;50.518;10.870;2023-08-31T07:43:56;96069.69;;;12.17;100.00
32933;BME280;19444;50.518;10.870;2023-08-31T07:47:00;96074.00;;;12.10;100.00
32933;BME280;19444;50.518;10.870;2023-08-31T07:49:59;96083.75;;;12.14;100.00
32933;BME280;19444;50.518;10.870;2023-08-31T07:52:56;96087.88;;;12.33;100.00
32933;BME280;19444;50.518;10.870;2023-08-31T07:55:54;96086.25;;;12.19;100.00
32933;BME280;19444;50.518;10.870;2023-08-31T07:58:51;96085.75;;;12.59;100.00
32933;BME280;19444;50.518;10.870;2023-08-31T08:01:48;96097.56;;;12.25;100.00
32933;BME280;19444;50.518;10.870;2023-08-31T08:04:46;96096.75;;;12.66;100.00
32933;BME280;19444;50.518;10.870;2023-08-31T08:07:43;96097.25;;;12.47;100.00
32933;BME280;19444;50.518;10.870;2023-08-31T08:10:40;96096.06;;;12.90;100.00
32933;BME280;19444;50.518;10.870;2023-08-31T08:13:37;96101.44;;;12.90;100.00
32933;BME280;19444;50.518;10.870;2023-08-31T08:16:34;96100.41;;;12.82;100.00
32933;BME280;19444;50.518;10.870;2023-08-31T08:19:32;96102.16;;;12.78;100.00
32933;BME280;19444;50.518;10.870;2023-08-31T08:22:29;96097.75;;;13.40;100.00
32933;BME280;19444;50.518;10.870;2023-08-31T08:25:26;96097.41;;;13.42;100.00
32933;BME280;19444;50.518;10.870;2023-08-31T08:28:23;96101.50;;;13.72;100.00
32933;BME280;19444;50.518;10.870;2023-08-31T08:31:20;96100.34;;;13.85;100.00
32933;BME280;19444;50.518;10.870;2023-08-31T08:34:19;96095.50;;;13.42;100.00
32933;BME280;19444;50.518;10.870;2023-08-31T08:37:16;96092.16;;;13.57;100.00
32933;BME280;19444;50.518;10.870;2023-08-31T08:40:13;96091.84;;;13.14;100.00
32933;BME280;19444;50.518;10.870;2023-08-31T08:43:10;96087.66;;;13.37;100.00
32933;BME280;19444;50.518;10.870;2023-08-31T08:46:09;96098.16;;;12.85;100.00
32933;BME280;19444;50.518;10.870;2023-08-31T08:49:06;96091.25;;;12.96;100.00
32933;BME280;19444;50.518;10.870;2023-08-31T08:52:05;96092.03;;;12.96;100.00
32933;BME280;19444;50.518;10.870;2023-08-31T08:55:02;96092.91;;;13.21;100.00
32933;BME280;19444;50.518;10.870;2023-08-31T08:57:59;96086.19;;;14.01;100.00
32933;BME280;19444;50.518;10.870;2023-08-31T09:00:57;96093.38;;;14.09;100.00
32933;BME280;19444;50.518;10.870;2023-08-31T09:03:54;96093.16;;;13.41;100.00
32933;BME280;19444;50.518;10.870;2023-08-31T09:06:51;96109.88;;;13.71;100.00
32933;BME280;19444;50.518;10.870;2023-08-31T09:09:49;96098.91;;;13.63;100.00
32933;BME280;19444;50.518;10.870;2023-08-31T09:12:47;96099.72;;;14.16;100.00
32933;BME280;19444;50.518;10.870;2023-08-31T09:15:48;96099.47;;;13.45;100.00
32933;BME280;19444;50.518;10.870;2023-08-31T09:18:45;96113.22;;;13.43;100.00
32933;BME280;19444;50.518;10.870;2023-08-31T09:21:42;96114.59;;;13.16;100.00
32933;BME280;19444;50.518;10.870;2023-08-31T09:24:42;96121.00;;;13.69;100.00
32933;BME280;19444;50.518;10.870;2023-08-31T09:27:41;96116.06;;;13.71;100.00
32933;BME280;19444;50.518;10.870;2023-08-31T09:30:42;96116.16;;;13.50;100.00
32933;BME280;19444;50.518;10.870;2023-08-31T09:33:52;96118.75;;;13.47;100.00
32933;BME280;19444;50.518;10.870;2023-08-31T09:36:49;96119.63;;;13.26;100.00
32933;BME280;19444;50.518;10.870;2023-08-31T09:39:47;96121.13;;;13.73;100.00
32933;BME280;19444;50.518;10.870;2023-08-31T09:42:43;96122.34;;;13.75;100.00
32933;BME280;19444;50.518;10.870;2023-08-31T09:45:40;96114.28;;;14.00;100.00
32933;BME280;19444;50.518;10.870;2023-08-31T09:48:43;96116.06;;;13.59;100.00
32933;BME280;19444;50.518;10.870;2023-08-31T09:51:45;96121.19;;;13.27;100.00
32933;BME280;19444;50.518;10.870;2023-08-31T09:54:44;96118.50;;;13.52;100.00
32933;BME280;19444;50.518;10.870;2023-08-31T09:57:41;96133.84;;;13.27;100.00
32933;BME280;19444;50.518;10.870;2023-08-31T10:00:46;96124.78;;;13.44;100.00
32933;BME280;19444;50.518;10.870;2023-08-31T10:03:44;96128.47;;;14.24;100.00
32933;BME280;19444;50.518;10.870;2023-08-31T10:06:42;96125.88;;;14.40;100.00
32933;BME280;19444;50.518;10.870;2023-08-31T10:09:40;96123.06;;;14.37;100.00
32933;BME280;19444;50.518;10.870;2023-08-31T10:12:37;96131.13;;;13.72;100.00
32933;BME280;19444;50.518;10.870;2023-08-31T10:15:36;96127.75;;;13.75;100.00
32933;BME280;19444;50.518;10.870;2023-08-31T10:18:34;96133.69;;;13.81;100.00
32933;BME280;19444;50.518;10.870;2023-08-31T10:21:32;96129.19;;;14.62;100.00
32933;BME280;19444;50.518;10.870;2023-08-31T10:25:15;96124.00;;;14.16;100.00
32933;BME280;19444;50.518;10.870;2023-08-31T10:28:23;96127.03;;;14.15;100.00
32933;BME280;19444;50.518;10.870;2023-08-31T10:31:21;96146.00;;;14.06;100.00
32933;BME280;19444;50.518;10.870;2023-08-31T10:34:37;96134.69;;;13.76;100.00
32933;BME280;19444;50.518;10.870;2023-08-31T10:37:34;96149.78;;;12.99;100.00
32933;BME280;19444;50.518;10.870;2023-08-31T10:40:32;96144.63;;;13.27;100.00
32933;BME280;19444;50.518;10.870;2023-08-31T10:43:55;96154.69;;;12.97;100.00
32933;BME280;19444;50.518;10.870;2023-08-31T10:46:55;96146.28;;;12.98;100.00
32933;BME280;19444;50.518;10.870;2023-08-31T10:49:52;96152.47;;;12.99;100.00
32933;BME280;19444;50.518;10.870;2023-08-31T10:52:50;96147.19;;;14.58;100.00
32933;BME280;19444;50.518;10.870;2023-08-31T10:55:51;96138.28;;;14.69;100.00
32933;BME280;19444;50.518;10.870;2023-08-31T10:58:59;96120.59;;;15.44;100.00
32933;BME280;19444;50.518;10.870;2023-08-31T11:01:59;96120.31;;;14.89;100.00
32933;BME280;19444;50.518;10.870;2023-08-31T11:05:16;96124.53;;;15.62;100.00
32933;BME280;19444;50.518;10.870;2023-08-31T11:08:14;96118.03;;;15.03;100.00
32933;BME280;19444;50.518;10.870;2023-08-31T11:11:11;96119.44;;;15.13;100.00
32933;BME280;19444;50.518;10.870;2023-08-31T11:14:09;96132.53;;;15.90;100.00
32933;BME280;19444;50.518;10.870;2023-08-31T11:17:06;96116.41;;;16.09;100.00
32933;BME280;19444;50.518;10.870;2023-08-31T11:20:05;96126.63;;;16.70;100.00
32933;BME280;19444;50.518;10.870;2023-08-31T11:23:03;96119.94;;;16.29;100.00
32933;BME280;19444;50.518;10.870;2023-08-31T11:26:00;96109.25;;;16.36;100.00
32933;BME280;19444;50.518;10.870;2023-08-31T11:28:57;96112.88;;;16.25;100.00
32933;BME280;19444;50.518;10.870;2023-08-31T11:31:56;96114.34;;;16.38;100.00
32933;BME280;19444;50.518;10.870;2023-08-31T11:34:57;96116.69;;;15.88;100.00
32933;BME280;19444;50.518;10.870;2023-08-31T11:37:56;96115.66;;;16.28;100.00
32933;BME280;19444;50.518;10.870;2023-08-31T11:40:56;96122.19;;;15.76;100.00
32933;BME280;19444;50.518;10.870;2023-08-31T11:43:54;96114.84;;;15.45;100.00
32933;BME280;19444;50.518;10.870;2023-08-31T11:46:51;96120.59;;;14.84;100.00
32933;BME280;19444;50.518;10.870;2023-08-31T11:49:49;96126.97;;;14.92;100.00
32933;BME280;19444;50.518;10.870;2023-08-31T11:52:46;96118.09;;;15.07;100.00
32933;BME280;19444;50.518;10.870;2023-08-31T11:55:51;96134.78;;;14.97;100.00
32933;BME280;19444;50.518;10.870;2023-08-31T11:58:51;96128.75;;;14.60;100.00
32933;BME280;19444;50.518;10.870;2023-08-31T12:02:00;96131.31;;;14.68;100.00
32933;BME280;19444;50.518;10.870;2023-08-31T12:04:57;96130.97;;;14.70;100.00
32933;BME280;19444;50.518;10.870;2023-08-31T12:07:55;96138.72;;;14.71;100.00
32933;BME280;19444;50.518;10.870;2023-08-31T12:10:53;96132.41;;;14.79;100.00
32933;BME280;19444;50.518;10.870;2023-08-31T12:13:51;96130.28;;;15.01;100.00
32933;BME280;19444;50.518;10.870;2023-08-31T12:16:49;96132.69;;;14.90;100.00
32933;BME280;19444;50.518;10.870;2023-08-31T12:19:46;96125.69;;;15.01;100.00
32933;BME280;19444;50.518;10.870;2023-08-31T12:22:43;96128.69;;;14.84;100.00
32933;BME280;19444;50.518;10.870;2023-08-31T12:25:48;96135.19;;;14.55;100.00
32933;BME280;19444;50.518;10.870;2023-08-31T12:28:46;96138.47;;;14.36;100.00
32933;BME280;19444;50.518;10.870;2023-08-31T12:31:43;96140.59;;;14.31;100.00
32933;BME280;19444;50.518;10.870;2023-08-31T12:34:40;96140.69;;;14.34;100.00
32933;BME280;19444;50.518;10.870;2023-08-31T12:37:37;96149.13;;;14.33;100.00
32933;BME280;19444;50.518;10.870;2023-08-31T12:40:35;96153.38;;;14.34;100.00
32933;BME280;19444;50.518;10.870;2023-08-31T12:43:34;96165.09;;;14.13;100.00
32933;BME280;19444;50.518;10.870;2023-08-31T12:46:31;96170.38;;;13.73;100.00
32933;BME280;19444;50.518;10.870;2023-08-31T12:49:28;96177.69;;;13.73;100.00
32933;BME280;19444;50.518;10.870;2023-08-31T12:52:25;96190.19;;;13.44;100.00
32933;BME280;19444;50.518;10.870;2023-08-31T12:55:22;96169.75;;;13.43;100.00
32933;BME280;19444;50.518;10.870;2023-08-31T12:58:19;96176.78;;;13.23;100.00
32933;BME280;19444;50.518;10.870;2023-08-31T13:01:20;96177.19;;;13.58;100.00
32933;BME280;19444;50.518;10.870;2023-08-31T13:04:18;96167.69;;;13.98;100.00
32933;BME280;19444;50.518;10.870;2023-08-31T13:07:15;96166.78;;;13.93;100.00
32933;BME280;19444;50.518;10.870;2023-08-31T13:10:12;96166.75;;;14.95;100.00
32933;BME280;19444;50.518;10.870;2023-08-31T13:13:09;96163.00;;;15.27;100.00
32933;BME280;19444;50.518;10.870;2023-08-31T13:16:06;96161.00;;;15.84;100.00
32933;BME280;19444;50.518;10.870;2023-08-31T13:19:04;96163.06;;;16.06;100.00
32933;BME280;19444;50.518;10.870;2023-08-31T13:22:01;96163.94;;;15.95;100.00
32933;BME280;19444;50.518;10.870;2023-08-31T13:24:57;96161.38;;;16.17;100.00
32933;BME280;19444;50.518;10.870;2023-08-31T13:27:54;96153.72;;;16.19;100.00
32933;BME280;19444;50.518;10.870;2023-08-31T13:30:58;96152.06;;;16.50;100.00
32933;BME280;19444;50.518;10.870;2023-08-31T13:33:57;96155.31;;;16.40;100.00
32933;BME280;19444;50.518;10.870;2023-08-31T13:36:54;96152.91;;;16.54;100.00
32933;BME280;19444;50.518;10.870;2023-08-31T13:39:51;96151.75;;;16.90;100.00
32933;BME280;19444;50.518;10.870;2023-08-31T13:42:59;96145.72;;;16.62;100.00
32933;BME280;19444;50.518;10.870;2023-08-31T13:45:59;96143.44;;;16.80;100.00
32933;BME280;19444;50.518;10.870;2023-08-31T13:48:56;96146.84;;;15.90;100.00
32933;BME280;19444;50.518;10.870;2023-08-31T13:51:54;96136.53;;;17.01;100.00
32933;BME280;19444;50.518;10.870;2023-08-31T13:54:51;96137.25;;;17.41;100.00
32933;BME280;19444;50.518;10.870;2023-08-31T13:57:48;96151.22;;;15.79;100.00
32933;BME280;19444;50.518;10.870;2023-08-31T14:00:44;96140.06;;;15.65;100.00
32933;BME280;19444;50.518;10.870;2023-08-31T14:03:42;96139.47;;;16.58;100.00
32933;BME280;19444;50.518;10.870;2023-08-31T14:06:39;96140.56;;;16.72;100.00
32933;BME280;19444;50.518;10.870;2023-08-31T14:09:36;96136.25;;;15.66;100.00
32933;BME280;19444;50.518;10.870;2023-08-31T14:12:34;96131.63;;;15.67;100.00
32933;BME280;19444;50.518;10.870;2023-08-31T14:15:31;96128.44;;;15.33;100.00
32933;BME280;19444;50.518;10.870;2023-08-31T14:18:31;96143.31;;;15.43;100.00
32933;BME280;19444;50.518;10.870;2023-08-31T14:21:28;96152.53;;;15.26;100.00
32933;BME280;19444;50.518;10.870;2023-08-31T14:24:25;96146.34;;;15.25;100.00
32933;BME280;19444;50.518;10.870;2023-08-31T14:27:22;96140.91;;;15.38;100.00
32933;BME280;19444;50.518;10.870;2023-08-31T14:30:22;96142.78;;;15.21;100.00
32933;BME280;19444;50.518;10.870;2023-08-31T14:33:19;96143.91;;;15.36;100.00
32933;BME280;19444;50.518;10.870;2023-08-31T14:36:16;96140.59;;;15.11;100.00
32933;BME280;19444;50.518;10.870;2023-08-31T14:39:13;96145.22;;;15.26;100.00
32933;BME280;19444;50.518;10.870;2023-08-31T14:42:11;96150.03;;;15.33;100.00
32933;BME280;19444;50.518;10.870;2023-08-31T14:45:08;96142.94;;;15.13;100.00
32933;BME280;19444;50.518;10.870;2023-08-31T14:48:06;96148.00;;;15.14;100.00
32933;BME280;19444;50.518;10.870;2023-08-31T14:51:03;96147.44;;;14.80;100.00
32933;BME280;19444;50.518;10.870;2023-08-31T14:54:00;96150.00;;;14.89;100.00
32933;BME280;19444;50.518;10.870;2023-08-31T14:56:57;96147.56;;;14.84;100.00
32933;BME280;19444;50.518;10.870;2023-08-31T14:59:54;96150.63;;;14.70;100.00
32933;BME280;19444;50.518;10.870;2023-08-31T15:02:51;96167.88;;;14.94;100.00
32933;BME280;19444;50.518;10.870;2023-08-31T15:05:48;96172.34;;;15.02;100.00
32933;BME280;19444;50.518;10.870;2023-08-31T15:08:46;96175.06;;;14.90;100.00
32933;BME280;19444;50.518;10.870;2023-08-31T15:11:43;96179.88;;;14.68;100.00
32933;BME280;19444;50.518;10.870;2023-08-31T15:14:41;96183.28;;;14.29;100.00
32933;BME280;19444;50.518;10.870;2023-08-31T15:17:38;96184.50;;;14.31;100.00
32933;BME280;19444;50.518;10.870;2023-08-31T15:20:35;96189.91;;;14.19;100.00
32933;BME280;19444;50.518;10.870;2023-08-31T15:23:34;96181.59;;;14.12;100.00
32933;BME280;19444;50.518;10.870;2023-08-31T15:26:31;96190.25;;;14.05;100.00
32933;BME280;19444;50.518;10.870;2023-08-31T15:29:28;96200.13;;;14.01;100.00
32933;BME280;19444;50.518;10.870;2023-08-31T15:32:25;96203.94;;;13.88;100.00
32933;BME280;19444;50.518;10.870;2023-08-31T15:35:23;96202.34;;;13.62;100.00